Urb La Quinta Dr Velez, Puerto Rico
Current Conditions -  °F | °C
As of 3:50 PM on Friday 31 Oct 2014 (Local Time) from TJBQ Reporting Station
Thunderstorm Thunderstorm  
Wind Chill: 77°   Ceiling: 6000
Heat Index: 78°   Visibility: 7mi
Dew Point: 75°   Wind: 0mph
Humidity: 94%   Direction: NA
Pressure: 29.88"   Gusts: NA
Location:  18.0846°N, 67.0463°W
Report Text: TJBQ 311950Z 00000KT 7SM -TSRA SCT035 BKN060 OVC110 25/24 A2988 RMK LTG VC AND DSNT ALQDS TS OHD ----RWY08 ATIS U
Loading
Personal Weather Stations






























Interactive Weather Map
Tropical Storm Tracking
New forecast layout! Learn more

10-Day Weather Forecast

Advertisements
Track Severe Weather on mobile